Time;durP1;ratioP1;P1;durP2;ratioP2;P2;SDS_P1;SDS_P2;PMS_P1;PMS_P2;Temp;Humidity;BMP_temperature;BMP_pressure;BME280_temperature;BME280_humidity;BME280_pressure;Samples;Min_cycle;Max_cycle;Signal;HPM_P1;HPM_P2
2022/02/03 00:01:08;;;;;;;38.13;23.67;;;9.30;99.90;;;;;;5066171;28;25090;-68
2022/02/03 00:03:47;;;;;;;38.05;24.15;;;9.30;99.90;;;;;;5066914;28;25076;-70
2022/02/03 00:06:17;;;;;;;35.30;23.25;;;9.30;99.90;;;;;;5065925;28;25061;-71
2022/02/03 00:09:13;;;;;;;31.58;22.20;;;9.30;99.90;;;;;;5047073;28;25152;-71
2022/02/03 00:25:40;;;;;;;41.25;25.65;;;9.20;99.90;;;;;;5064799;28;25071;-70
2022/02/03 00:33:31;;;;;;;43.88;29.65;;;9.20;99.90;;;;;;5059046;28;25086;-69
2022/02/03 00:48:15;;;;;;;45.47;28.23;;;9.20;99.90;;;;;;5046891;28;25071;-70
2022/02/03 00:49:59;;;;;;;52.85;30.75;;;9.10;99.90;;;;;;5065772;28;25049;-71
2022/02/03 00:52:26;;;;;;;46.83;28.35;;;9.10;99.90;;;;;;5053413;28;25076;-70
2022/02/03 00:54:51;;;;;;;45.03;30.15;;;9.10;99.90;;;;;;5046595;28;25052;-70
2022/02/03 00:57:31;;;;;;;46.30;30.35;;;9.10;99.90;;;;;;5065992;28;25091;-71
2022/02/03 01:00:02;;;;;;;42.03;30.05;;;9.10;99.90;;;;;;5054531;28;25079;-68
2022/02/03 01:02:29;;;;;;;49.70;31.50;;;9.10;99.90;;;;;;5064116;28;25102;-69
2022/02/03 01:04:58;;;;;;;49.92;33.15;;;9.10;99.90;;;;;;5056492;28;25066;-70
2022/02/03 01:07:25;;;;;;;49.15;32.38;;;9.10;99.90;;;;;;5046295;28;25069;-69
2022/02/03 01:10:03;;;;;;;53.33;33.90;;;9.10;99.90;;;;;;5046466;28;25073;-69
2022/02/03 01:18:30;;;;;;;51.17;31.13;;;9.00;99.90;;;;;;5064413;28;25317;-70
2022/02/03 01:37:17;;;;;;;51.55;31.30;;;8.90;99.90;;;;;;4982557;28;25051;-67
2022/02/03 01:45:39;;;;;;;46.30;27.10;;;8.90;99.90;;;;;;5064221;28;25079;-68
2022/02/03 01:53:31;;;;;;;42.58;27.65;;;8.90;99.90;;;;;;5065604;28;25166;-69
2022/02/03 01:56:22;;;;;;;47.85;27.73;;;8.80;99.90;;;;;;5058673;28;25143;-71
2022/02/03 01:59:02;;;;;;;39.47;25.30;;;8.90;99.90;;;;;;5046783;28;25069;-66
2022/02/03 02:01:33;;;;;;;38.17;23.95;;;8.90;99.90;;;;;;5058380;28;25065;-68
2022/02/03 02:04:08;;;;;;;37.40;23.75;;;8.90;99.90;;;;;;5064631;28;25057;-68
2022/02/03 02:07:13;;;;;;;37.22;23.15;;;8.80;99.90;;;;;;5051809;28;25092;-68
2022/02/03 02:12:39;;;;;;;33.00;20.83;;;8.80;99.90;;;;;;5018726;28;25100;-69
2022/02/03 02:42:43;;;;;;;33.65;18.88;;;8.70;99.90;;;;;;5060598;28;25067;-68
2022/02/03 02:45:11;;;;;;;33.72;19.13;;;8.70;99.90;;;;;;5064390;28;25089;-69
2022/02/03 02:48:16;;;;;;;31.05;18.42;;;8.70;99.90;;;;;;5063184;28;25064;-70
2022/02/03 02:51:02;;;;;;;30.95;17.48;;;8.70;99.90;;;;;;5063881;28;25086;-67
2022/02/03 03:00:33;;;;;;;26.88;15.88;;;8.70;99.90;;;;;;5068508;28;25123;-70
2022/02/03 03:03:22;;;;;;;24.90;15.07;;;8.70;99.90;;;;;;5066879;28;25082;-69
2022/02/03 03:33:43;;;;;;;22.70;10.82;;;8.70;99.90;;;;;;5072674;28;25066;-66
2022/02/03 03:36:13;;;;;;;15.15;9.48;;;8.60;99.90;;;;;;5070605;28;25063;-66
2022/02/03 03:38:43;;;;;;;16.15;9.75;;;8.70;99.90;;;;;;5065537;28;25061;-69
2022/02/03 03:41:13;;;;;;;18.83;10.35;;;8.70;99.90;;;;;;5049210;28;25126;-70
2022/02/03 03:43:43;;;;;;;20.65;9.77;;;8.60;99.90;;;;;;5058829;28;25097;-68
2022/02/03 03:46:31;;;;;;;17.17;8.55;;;8.60;99.90;;;;;;5055259;28;25149;-70
2022/02/03 03:49:02;;;;;;;17.63;9.18;;;8.60;99.90;;;;;;5058785;28;25094;-70
2022/02/03 03:51:54;;;;;;;21.20;8.05;;;8.60;99.90;;;;;;5066841;28;25071;-69
2022/02/03 03:54:44;;;;;;;16.92;8.40;;;8.60;99.90;;;;;;5049478;28;25109;-70
2022/02/03 04:37:43;;;;;;;12.88;5.22;;;8.60;99.90;;;;;;5072414;28;25079;-70
2022/02/03 04:44:00;;;;;;;24.40;5.93;;;8.60;99.90;;;;;;5075474;28;25042;-68
2022/02/03 05:02:14;;;;;;;12.40;5.63;;;8.60;99.90;;;;;;5066458;28;25056;-68
2022/02/03 05:05:03;;;;;;;10.40;4.60;;;8.60;99.90;;;;;;5031418;28;25104;-70
2022/02/03 05:13:35;;;;;;;16.00;4.68;;;8.50;99.90;;;;;;5058499;28;25118;-70
2022/02/03 05:20:14;;;;;;;13.63;4.30;;;8.50;99.90;;;;;;5067925;28;25088;-71
2022/02/03 05:23:00;;;;;;;15.18;4.38;;;8.50;99.90;;;;;;5068812;28;25093;-70
2022/02/03 05:25:55;;;;;;;13.05;4.55;;;8.50;99.90;;;;;;5070224;28;25063;-70
2022/02/03 05:42:00;;;;;;;13.40;5.72;;;8.50;99.90;;;;;;5067041;28;25163;-69
2022/02/03 05:50:02;;;;;;;14.57;5.40;;;8.40;99.90;;;;;;4958369;28;25147;-71
2022/02/03 05:52:58;;;;;;;11.15;4.78;;;8.40;99.90;;;;;;5035098;28;25145;-69
2022/02/03 06:00:57;;;;;;;19.20;4.70;;;8.40;99.90;;;;;;5061880;28;25090;-69
2022/02/03 06:01:18;;;;;;;12.70;4.32;;;8.40;99.90;;;;;;5062943;28;25108;-68
2022/02/03 06:14:29;;;;;;;18.65;5.80;;;8.30;99.90;;;;;;5066234;28;25052;-69
2022/02/03 06:24:49;;;;;;;15.18;6.63;;;8.30;99.90;;;;;;5070862;28;25051;-70
2022/02/03 06:27:28;;;;;;;23.45;7.50;;;8.30;99.90;;;;;;5067172;28;25090;-69
2022/02/03 06:29:56;;;;;;;19.92;6.38;;;8.30;99.90;;;;;;5075645;28;25051;-68
2022/02/03 06:32:23;;;;;;;15.85;6.68;;;8.20;99.90;;;;;;5071608;28;25074;-69
2022/02/03 06:34:49;;;;;;;16.17;7.05;;;8.20;99.90;;;;;;5069155;28;25078;-69
2022/02/03 06:37:14;;;;;;;18.98;7.25;;;8.20;99.90;;;;;;5070857;28;25080;-68
2022/02/03 06:39:40;;;;;;;21.95;8.65;;;8.20;99.90;;;;;;5077334;28;25084;-67
2022/02/03 06:42:07;;;;;;;19.05;7.78;;;8.10;99.90;;;;;;5068992;28;25068;-69
2022/02/03 06:47:07;;;;;;;14.77;8.60;;;8.10;99.90;;;;;;5068059;28;25059;-69
2022/02/03 06:53:06;;;;;;;22.27;8.77;;;8.10;99.90;;;;;;5068717;28;25149;-68
2022/02/03 06:55:10;;;;;;;15.90;8.23;;;8.10;99.90;;;;;;5061709;28;25118;-69
2022/02/03 06:57:50;;;;;;;19.90;9.50;;;8.20;99.90;;;;;;5070086;28;25093;-68
2022/02/03 07:00:20;;;;;;;16.58;8.13;;;8.10;99.90;;;;;;5069484;28;25062;-69
2022/02/03 07:02:49;;;;;;;18.30;8.63;;;8.10;99.90;;;;;;5068889;28;25066;-68
2022/02/03 07:05:15;;;;;;;19.85;9.18;;;8.20;99.90;;;;;;5069201;28;25101;-71
2022/02/03 07:07:41;;;;;;;20.83;9.30;;;8.20;99.90;;;;;;5068662;28;25065;-68
2022/02/03 07:10:09;;;;;;;18.40;9.43;;;8.20;99.90;;;;;;5066241;28;25072;-69
2022/02/03 07:12:35;;;;;;;19.00;10.50;;;8.20;99.90;;;;;;5066392;28;25082;-67
2022/02/03 07:15:03;;;;;;;21.08;10.93;;;8.20;99.90;;;;;;5068651;28;25151;-69
2022/02/03 07:17:29;;;;;;;24.95;11.77;;;8.20;99.90;;;;;;5070736;28;25096;-68
2022/02/03 07:20:00;;;;;;;27.63;12.02;;;8.10;99.90;;;;;;5072473;28;25067;-68
2022/02/03 07:22:26;;;;;;;24.55;12.68;;;8.20;99.90;;;;;;5080134;28;25089;-71
2022/02/03 07:24:52;;;;;;;24.38;13.65;;;8.10;99.90;;;;;;5080580;28;25070;-71
2022/02/03 07:27:18;;;;;;;21.77;13.65;;;8.10;99.90;;;;;;5079408;28;25126;-70
2022/02/03 07:29:44;;;;;;;25.83;12.18;;;8.10;99.90;;;;;;5080148;28;25149;-69
2022/02/03 07:32:09;;;;;;;23.70;14.23;;;8.10;99.90;;;;;;5079185;28;25091;-72
2022/02/03 07:34:35;;;;;;;23.05;13.88;;;8.00;99.90;;;;;;5095851;28;25139;-68
2022/02/03 07:37:01;;;;;;;28.73;14.70;;;8.10;99.90;;;;;;5095432;28;25068;-69
2022/02/03 07:39:26;;;;;;;27.67;17.13;;;8.00;99.90;;;;;;5091031;28;25102;-68
2022/02/03 07:41:52;;;;;;;23.58;15.18;;;8.00;99.90;;;;;;5076485;28;25071;-68
2022/02/03 07:44:18;;;;;;;22.02;14.43;;;8.00;99.90;;;;;;5094343;28;25069;-70
2022/02/03 07:46:43;;;;;;;26.75;16.00;;;8.00;99.90;;;;;;5076609;28;25083;-69
2022/02/03 07:49:09;;;;;;;29.42;16.63;;;8.00;99.90;;;;;;5058538;28;25078;-68
2022/02/03 07:51:35;;;;;;;29.30;17.92;;;7.90;99.90;;;;;;5072911;28;25092;-71
2022/02/03 07:54:00;;;;;;;30.73;19.05;;;7.90;99.90;;;;;;5071151;28;25065;-69
2022/02/03 07:56:26;;;;;;;32.25;20.27;;;7.80;99.90;;;;;;5070866;28;25147;-70
2022/02/03 07:58:52;;;;;;;31.52;19.50;;;7.80;99.90;;;;;;5070373;28;25143;-70
2022/02/03 08:01:17;;;;;;;39.80;20.75;;;7.80;99.90;;;;;;5071465;28;25130;-69
2022/02/03 08:03:45;;;;;;;34.33;21.83;;;7.70;99.90;;;;;;5052791;28;25059;-69
2022/02/03 08:06:18;;;;;;;37.92;22.17;;;7.70;99.90;;;;;;5070559;28;25076;-69
2022/02/03 08:08:49;;;;;;;38.72;23.23;;;7.60;99.90;;;;;;5053370;28;25072;-67
2022/02/03 08:11:21;;;;;;;37.65;24.05;;;7.60;99.90;;;;;;5070589;28;25050;-69
2022/02/03 08:14:03;;;;;;;44.65;26.10;;;7.60;99.90;;;;;;5071325;28;25062;-69
2022/02/03 08:16:35;;;;;;;41.47;23.52;;;7.60;99.90;;;;;;5072938;28;25064;-68
2022/02/03 08:19:07;;;;;;;39.15;23.27;;;7.60;99.90;;;;;;5055900;28;25108;-69
2022/02/03 08:21:36;;;;;;;36.60;23.00;;;7.50;99.90;;;;;;5072995;28;25064;-67
2022/02/03 08:26:52;;;;;;;34.30;22.45;;;7.50;99.90;;;;;;5074782;28;25135;-70
2022/02/03 08:32:01;;;;;;;46.13;24.52;;;7.50;99.90;;;;;;5073316;28;25072;-69
2022/02/03 08:34:46;;;;;;;38.72;23.65;;;7.50;99.90;;;;;;5051709;28;25105;-69
2022/02/03 08:37:14;;;;;;;51.28;25.63;;;7.50;99.90;;;;;;5051928;28;25095;-69
2022/02/03 08:40:10;;;;;;;41.25;23.75;;;7.50;99.90;;;;;;5035582;28;25144;-69
2022/02/03 08:42:36;;;;;;;47.65;24.23;;;7.40;99.90;;;;;;5051789;28;25064;-69
2022/02/03 08:45:02;;;;;;;38.70;22.17;;;7.40;99.90;;;;;;5034037;28;25106;-67
2022/02/03 08:47:27;;;;;;;32.00;18.98;;;7.40;99.90;;;;;;5054362;28;25163;-70
2022/02/03 08:49:53;;;;;;;36.80;21.45;;;7.40;99.90;;;;;;5071266;28;25079;-72
2022/02/03 08:52:22;;;;;;;37.55;19.02;;;7.40;99.90;;;;;;5072185;28;25058;-71
2022/02/03 08:55:05;;;;;;;34.38;18.75;;;7.40;99.90;;;;;;5072828;28;25078;-70
2022/02/03 08:57:58;;;;;;;32.83;15.98;;;7.40;99.90;;;;;;5073353;28;25060;-69
2022/02/03 09:00:52;;;;;;;34.35;17.50;;;7.40;99.90;;;;;;5073459;28;25052;-71
2022/02/03 09:28:23;;;;;;;36.28;17.13;;;7.50;99.90;;;;;;5073471;28;25066;-71
2022/02/03 09:57:53;;;;;;;30.65;15.73;;;7.50;99.90;;;;;;5061019;28;25060;-70
2022/02/03 10:00:44;;;;;;;25.90;14.23;;;7.60;99.90;;;;;;5049826;28;25157;-70
2022/02/03 10:03:22;;;;;;;28.48;14.10;;;7.50;99.90;;;;;;5067266;28;25105;-72
2022/02/03 10:05:58;;;;;;;22.98;12.68;;;7.50;99.90;;;;;;5050082;28;25091;-69
2022/02/03 10:08:26;;;;;;;26.65;14.45;;;7.50;99.90;;;;;;5067350;28;25072;-71
2022/02/03 10:11:13;;;;;;;28.42;12.68;;;7.60;99.90;;;;;;5067410;28;25062;-71
2022/02/03 10:13:51;;;;;;;21.77;12.20;;;7.60;99.90;;;;;;5068321;28;25078;-69
2022/02/03 10:16:23;;;;;;;23.55;12.98;;;7.60;99.90;;;;;;5052909;28;25069;-70
2022/02/03 10:19:10;;;;;;;22.85;12.00;;;7.60;99.90;;;;;;5069571;28;25101;-70
2022/02/03 10:21:36;;;;;;;24.15;11.57;;;7.60;99.90;;;;;;5070037;28;25095;-69
2022/02/03 10:24:06;;;;;;;24.80;13.43;;;7.60;99.90;;;;;;5068787;28;25115;-69
2022/02/03 10:26:34;;;;;;;29.30;12.35;;;7.60;99.90;;;;;;5070649;28;25058;-68
2022/02/03 10:29:00;;;;;;;34.28;13.43;;;7.60;99.90;;;;;;5072603;28;25141;-70
2022/02/03 10:31:34;;;;;;;24.70;13.77;;;7.60;99.90;;;;;;5055717;28;25113;-71
2022/02/03 10:34:05;;;;;;;27.77;14.27;;;7.60;99.90;;;;;;5070683;28;25076;-72
2022/02/03 10:36:58;;;;;;;30.33;14.60;;;7.60;99.90;;;;;;5071604;28;25147;-70
2022/02/03 10:42:29;;;;;;;30.13;14.13;;;7.80;99.90;;;;;;5055754;28;25072;-69
2022/02/03 10:48:12;;;;;;;28.38;14.88;;;7.90;99.90;;;;;;5069889;28;25050;-70
2022/02/03 10:50:47;;;;;;;27.10;14.75;;;7.90;99.90;;;;;;5066683;28;25089;-70
2022/02/03 10:56:09;;;;;;;35.90;15.43;;;8.00;99.90;;;;;;5068567;28;25122;-70
2022/02/03 10:59:05;;;;;;;26.98;15.02;;;8.00;99.90;;;;;;5049733;28;25066;-70
2022/02/03 11:01:45;;;;;;;26.42;15.15;;;8.00;99.90;;;;;;5070119;28;25058;-72
2022/02/03 11:05:03;;;;;;;30.35;15.63;;;8.10;99.90;;;;;;5068200;28;25066;-71
2022/02/03 11:07:12;;;;;;;23.77;15.23;;;8.10;99.90;;;;;;5064442;28;25069;-71
2022/02/03 11:12:14;;;;;;;26.67;14.52;;;8.20;99.90;;;;;;5068400;28;25070;-71
2022/02/03 11:14:43;;;;;;;21.77;13.73;;;8.20;99.90;;;;;;5051396;28;25052;-71
2022/02/03 11:17:10;;;;;;;27.35;14.95;;;8.30;99.90;;;;;;5071212;28;25055;-72
2022/02/03 11:19:37;;;;;;;28.05;13.88;;;8.20;99.90;;;;;;5071719;28;25080;-71
2022/02/03 11:22:08;;;;;;;29.98;14.13;;;8.20;99.90;;;;;;5053622;28;25068;-71
2022/02/03 11:24:43;;;;;;;20.35;14.18;;;8.20;99.90;;;;;;5071475;28;25067;-70
2022/02/03 11:27:22;;;;;;;23.63;14.05;;;8.20;99.90;;;;;;5071642;28;25071;-72
2022/02/03 11:46:33;;;;;;;31.38;13.55;;;8.50;99.90;;;;;;5092086;28;25049;-69
2022/02/03 11:51:55;;;;;;;29.98;14.65;;;8.40;99.90;;;;;;5071978;28;25053;-68
2022/02/03 11:57:28;;;;;;;26.08;14.77;;;8.40;99.90;;;;;;5072101;28;25073;-69
2022/02/03 12:25:58;;;;;;;34.92;17.13;;;8.00;99.90;;;;;;5015147;28;25200;-71
2022/02/03 12:28:48;;;;;;;35.00;17.50;;;8.00;99.90;;;;;;4996228;28;25107;-70
2022/02/03 12:39:10;;;;;;;29.73;14.95;;;7.90;99.90;;;;;;5057015;28;25074;-70
2022/02/03 12:41:50;;;;;;;28.75;15.63;;;7.90;99.90;;;;;;5055274;28;25093;-70
2022/02/03 12:44:22;;;;;;;31.95;14.43;;;7.80;99.90;;;;;;5054125;28;25069;-68
2022/02/03 12:46:54;;;;;;;;;;;7.90;99.90;;;;;;5059538;28;25064;-69
2022/02/03 12:49:22;;;;;;;34.08;14.13;;;7.90;99.90;;;;;;5045535;28;24074;-69
2022/02/03 12:51:55;;;;;;;27.65;13.88;;;7.90;99.90;;;;;;5058719;28;25042;-70
2022/02/03 12:54:24;;;;;;;34.25;16.70;;;7.80;99.90;;;;;;5058293;28;25083;-69
2022/02/03 12:57:02;;;;;;;39.42;18.00;;;7.80;99.90;;;;;;5057926;28;25044;-71
2022/02/03 12:59:32;;;;;;;34.00;17.85;;;7.70;99.90;;;;;;5056265;28;25097;-69
2022/02/03 13:02:07;;;;;;;32.70;16.17;;;7.60;99.90;;;;;;5033101;28;25479;-70
2022/02/03 13:04:33;;;;;;;36.58;17.17;;;7.60;99.90;;;;;;5047573;28;25137;-69
2022/02/03 13:07:05;;;;;;;36.47;17.63;;;7.60;99.90;;;;;;5030867;28;25067;-69
2022/02/03 13:09:53;;;;;;;35.60;18.42;;;7.50;99.90;;;;;;5029922;28;25099;-69
2022/02/03 13:12:31;;;;;;;35.90;17.13;;;7.60;99.90;;;;;;5048886;28;25073;-70
2022/02/03 13:15:00;;;;;;;37.22;18.38;;;7.60;99.90;;;;;;5050229;28;25138;-70
2022/02/03 13:17:32;;;;;;;37.85;18.00;;;7.50;99.90;;;;;;5030248;28;25012;-70
2022/02/03 13:20:17;;;;;;;38.92;17.98;;;7.60;99.90;;;;;;5034305;28;25062;-69
2022/02/03 13:22:58;;;;;;;38.42;19.73;;;7.50;99.90;;;;;;5037537;28;25068;-67
2022/02/03 13:25:32;;;;;;;33.63;18.63;;;7.50;99.90;;;;;;5049711;28;25095;-70
2022/02/03 13:30:51;;;;;;;34.00;19.23;;;7.40;99.90;;;;;;5049394;28;25153;-72
2022/02/03 13:33:24;;;;;;;27.80;16.52;;;7.50;99.90;;;;;;5047261;28;25069;-70
2022/02/03 13:38:25;;;;;;;33.97;18.52;;;7.60;99.90;;;;;;5047699;28;25073;-69
2022/02/03 13:41:06;;;;;;;32.25;18.67;;;7.50;99.90;;;;;;5048242;28;25089;-70
2022/02/03 13:43:38;;;;;;;38.00;22.50;;;7.50;99.90;;;;;;5047149;28;25092;-68
2022/02/03 13:46:06;;;;;;;40.63;20.70;;;7.50;99.90;;;;;;5046827;28;25102;-71
2022/02/03 13:48:37;;;;;;;35.50;19.77;;;7.60;99.90;;;;;;5046833;28;25126;-70
2022/02/03 13:51:18;;;;;;;34.40;17.58;;;7.60;99.90;;;;;;5051817;28;25124;-70
2022/02/03 13:53:58;;;;;;;25.90;17.15;;;7.60;99.90;;;;;;5054873;28;25067;-69
2022/02/03 14:21:21;;;;;;;27.60;15.50;;;7.70;99.90;;;;;;5055577;28;25063;-70
2022/02/03 14:29:13;;;;;;;25.25;15.07;;;7.80;99.90;;;;;;5049541;28;25088;-71
2022/02/03 14:31:39;;;;;;;21.15;13.80;;;7.70;99.90;;;;;;5049289;28;25073;-70
2022/02/03 14:34:13;;;;;;;22.80;15.60;;;7.80;99.90;;;;;;5016147;28;25106;-69
2022/02/03 14:36:42;;;;;;;24.45;14.95;;;7.80;99.90;;;;;;5029399;28;25076;-70
2022/02/03 14:39:16;;;;;;;20.50;14.63;;;7.80;99.90;;;;;;5029571;28;25065;-70
2022/02/03 14:41:45;;;;;;;25.05;15.43;;;7.70;99.90;;;;;;5029649;28;25080;-70
2022/02/03 14:44:14;;;;;;;24.90;13.68;;;7.70;99.90;;;;;;5027898;28;25114;-67
2022/02/03 14:46:49;;;;;;;20.65;14.60;;;7.80;99.90;;;;;;5029895;28;25102;-70
2022/02/03 14:49:15;;;;;;;21.15;14.48;;;7.80;99.90;;;;;;5051403;28;25090;-67
2022/02/03 14:52:07;;;;;;;20.48;14.05;;;7.80;99.90;;;;;;5053548;28;25090;-69
2022/02/03 14:59:43;;;;;;;21.20;12.68;;;7.90;99.90;;;;;;5057713;28;25110;-70
2022/02/03 15:02:09;;;;;;;24.92;13.00;;;7.90;99.90;;;;;;5059730;28;25086;-66
2022/02/03 15:04:37;;;;;;;26.50;13.60;;;7.90;99.90;;;;;;5037828;28;25041;-67
2022/02/03 15:07:05;;;;;;;19.42;12.77;;;7.90;99.90;;;;;;5056995;28;25043;-67
2022/02/03 15:12:26;;;;;;;18.92;12.68;;;7.90;99.90;;;;;;5054417;28;25047;-70
2022/02/03 15:14:56;;;;;;;40.95;13.13;;;7.90;99.90;;;;;;5054705;28;25139;-72
2022/02/03 15:17:23;;;;;;;17.42;11.23;;;8.00;99.90;;;;;;5037015;28;25083;-70
2022/02/03 15:19:49;;;;;;;16.67;11.88;;;8.00;99.90;;;;;;5037309;28;25104;-72
2022/02/03 15:22:15;;;;;;;20.65;12.30;;;7.90;99.90;;;;;;5055788;28;25079;-69
2022/02/03 15:24:40;;;;;;;15.25;11.63;;;8.00;99.90;;;;;;5054643;28;25049;-69
2022/02/03 15:27:06;;;;;;;17.70;11.55;;;8.00;99.90;;;;;;5055860;28;25061;-66
2022/02/03 15:29:31;;;;;;;18.63;12.73;;;8.00;99.90;;;;;;5055887;28;25064;-70
2022/02/03 15:31:58;;;;;;;15.43;11.90;;;7.90;99.90;;;;;;5056956;28;25106;-72
2022/02/03 15:34:24;;;;;;;20.08;12.95;;;8.00;99.90;;;;;;5053912;28;25059;-71
2022/02/03 15:36:53;;;;;;;16.70;12.43;;;7.90;99.90;;;;;;5055790;28;25141;-70
2022/02/03 15:39:24;;;;;;;20.98;13.98;;;7.90;99.90;;;;;;5040644;28;25073;-68
2022/02/03 15:41:52;;;;;;;18.83;13.02;;;7.90;99.90;;;;;;5040252;28;25060;-70
2022/02/03 15:44:18;;;;;;;19.75;13.60;;;8.00;99.90;;;;;;5037725;28;25140;-69
2022/02/03 15:46:58;;;;;;;20.63;12.90;;;8.10;99.90;;;;;;5034717;28;25073;-70
2022/02/03 15:50:01;;;;;;;20.00;12.40;;;8.00;99.90;;;;;;5054100;28;25068;-68
2022/02/03 16:03:10;;;;;;;20.15;12.73;;;7.90;99.90;;;;;;5064145;28;25067;-68
2022/02/03 16:18:56;;;;;;;26.80;14.00;;;7.90;99.90;;;;;;5057915;28;25071;-70
2022/02/03 16:21:29;;;;;;;19.23;13.27;;;7.90;99.90;;;;;;5055997;28;25051;-68
2022/02/03 16:24:11;;;;;;;22.13;14.32;;;7.90;99.90;;;;;;5053946;28;25054;-70
2022/02/03 16:40:48;;;;;;;23.67;14.20;;;7.90;99.90;;;;;;5055314;28;25049;-70
2022/02/03 16:51:01;;;;;;;23.10;15.38;;;7.70;99.90;;;;;;5052042;28;25146;-69
2022/02/03 16:53:27;;;;;;;24.08;16.73;;;7.70;99.90;;;;;;5052087;28;25053;-71
2022/02/03 16:55:52;;;;;;;21.02;14.75;;;7.70;99.90;;;;;;5052694;28;25058;-68
2022/02/03 16:58:18;;;;;;;24.15;15.25;;;7.70;99.90;;;;;;5050510;28;25084;-68
2022/02/03 17:00:46;;;;;;;23.73;15.98;;;7.70;99.90;;;;;;5056178;28;25068;-68
2022/02/03 17:03:11;;;;;;;19.98;15.77;;;7.70;99.90;;;;;;5031500;28;25135;-68
2022/02/03 17:05:38;;;;;;;22.77;16.00;;;7.70;99.90;;;;;;5031887;28;25071;-67
2022/02/03 17:08:05;;;;;;;20.08;15.80;;;7.70;99.90;;;;;;5037519;28;25063;-68
2022/02/03 17:10:30;;;;;;;23.67;16.10;;;7.70;99.90;;;;;;5050728;28;25079;-68
2022/02/03 17:12:56;;;;;;;20.35;15.27;;;7.80;99.90;;;;;;5052225;28;25078;-68
2022/02/03 17:15:25;;;;;;;22.73;16.67;;;7.70;99.90;;;;;;5051458;28;25067;-71
2022/02/03 17:17:51;;;;;;;22.83;16.30;;;7.80;99.90;;;;;;5053752;28;25063;-71
2022/02/03 17:20:24;;;;;;;29.65;19.92;;;7.70;99.90;;;;;;5054862;28;25058;-70
2022/02/03 17:22:52;;;;;;;30.85;17.77;;;7.80;99.90;;;;;;5054706;28;25063;-70
2022/02/03 17:25:33;;;;;;;23.67;16.20;;;7.80;99.90;;;;;;5042601;28;25070;-71
2022/02/03 17:28:06;;;;;;;22.85;15.73;;;7.80;99.90;;;;;;5049560;28;25048;-69
2022/02/03 17:30:56;;;;;;;20.90;15.27;;;7.80;99.90;;;;;;5047340;28;25058;-71
2022/02/03 17:53:08;;;;;;;22.20;16.95;;;7.90;99.90;;;;;;5044036;28;25141;-70
2022/02/03 18:09:19;;;;;;;20.25;15.68;;;7.90;99.90;;;;;;5032466;28;25084;-71
2022/02/03 18:18:18;;;;;;;27.80;18.08;;;7.90;99.90;;;;;;5039465;28;25055;-71
2022/02/03 18:56:34;;;;;;;27.90;20.65;;;8.00;99.90;;;;;;5048937;28;25054;-69
2022/02/03 19:01:46;;;;;;;28.05;21.40;;;8.00;99.90;;;;;;5046722;28;25050;-70
2022/02/03 20:08:50;;;;;;;40.33;27.30;;;8.10;99.90;;;;;;5052561;28;25050;-73
2022/02/03 20:11:17;;;;;;;34.72;24.08;;;8.10;99.90;;;;;;5052997;28;25147;-69
2022/02/03 20:13:44;;;;;;;40.33;27.30;;;8.10;99.90;;;;;;5020955;28;25075;-69
2022/02/03 20:16:11;;;;;;;35.47;25.23;;;8.00;99.90;;;;;;5032687;28;25061;-72
2022/02/03 20:18:37;;;;;;;35.90;24.40;;;8.10;99.90;;;;;;5032085;28;25133;-71
2022/02/03 20:21:03;;;;;;;35.97;26.08;;;8.10;99.90;;;;;;5031893;28;25065;-69
2022/02/03 20:23:28;;;;;;;38.35;27.45;;;8.10;99.90;;;;;;5041842;28;25116;-71
2022/02/03 20:25:57;;;;;;;33.83;25.60;;;8.10;99.90;;;;;;5052549;28;25088;-70
2022/02/03 20:28:24;;;;;;;39.58;26.45;;;8.00;99.90;;;;;;5051712;28;25098;-71
2022/02/03 20:30:49;;;;;;;31.88;24.00;;;8.00;99.90;;;;;;5033509;28;25163;-71
2022/02/03 20:33:15;;;;;;;33.22;25.42;;;8.00;99.90;;;;;;5026743;28;25108;-69
2022/02/03 20:35:41;;;;;;;31.05;24.13;;;8.00;99.90;;;;;;5050864;28;25136;-71
2022/02/03 20:38:07;;;;;;;37.05;25.77;;;8.00;99.90;;;;;;5052114;28;25070;-70
2022/02/03 20:40:34;;;;;;;38.35;26.85;;;8.00;99.90;;;;;;5049350;28;25055;-71
2022/02/03 20:43:00;;;;;;;41.88;28.38;;;8.00;99.90;;;;;;5050854;28;25064;-72
2022/02/03 20:45:26;;;;;;;43.40;28.17;;;8.00;99.90;;;;;;5049974;28;25099;-70
2022/02/03 20:47:53;;;;;;;35.42;25.50;;;8.00;99.90;;;;;;5050048;28;25091;-71
2022/02/03 20:50:20;;;;;;;37.17;24.67;;;8.00;99.90;;;;;;5044506;28;25153;-70
2022/02/03 20:52:49;;;;;;;35.53;25.05;;;8.00;99.90;;;;;;5047424;28;25131;-70
2022/02/03 20:55:16;;;;;;;37.92;25.08;;;8.00;99.90;;;;;;5044039;28;25108;-70
2022/02/03 20:57:42;;;;;;;36.03;25.35;;;8.00;99.90;;;;;;5059157;28;25122;-71
2022/02/03 21:05:07;;;;;;;36.45;25.90;;;8.00;99.90;;;;;;5049842;28;25414;-71
2022/02/03 21:07:33;;;;;;;34.67;24.58;;;8.00;99.90;;;;;;5049558;28;25084;-71
2022/02/03 21:10:02;;;;;;;34.38;24.55;;;8.20;99.90;;;;;;5049531;28;25107;-72
2022/02/03 21:12:29;;;;;;;34.92;25.00;;;8.20;99.90;;;;;;5059868;28;25056;-70
2022/02/03 21:14:55;;;;;;;36.38;25.00;;;8.20;99.90;;;;;;5049671;28;25066;-71
2022/02/03 21:17:28;;;;;;;34.30;23.83;;;8.10;99.90;;;;;;5049840;28;25064;-71
2022/02/03 21:19:54;;;;;;;32.40;23.65;;;8.10;99.90;;;;;;5050576;28;25122;-70
2022/02/03 21:22:21;;;;;;;34.10;25.83;;;8.10;99.90;;;;;;5049863;28;25140;-70
2022/02/03 21:24:47;;;;;;;36.15;25.40;;;8.10;99.90;;;;;;5049617;28;25090;-69
2022/02/03 21:27:18;;;;;;;39.40;27.10;;;8.00;99.90;;;;;;5050095;28;25158;-69
2022/02/03 21:29:44;;;;;;;40.13;26.35;;;8.00;99.90;;;;;;5049427;28;25071;-71
2022/02/03 21:32:10;;;;;;;37.45;25.35;;;8.10;99.90;;;;;;5051306;28;25078;-71
2022/02/03 21:34:36;;;;;;;39.88;27.95;;;8.10;99.90;;;;;;5049722;28;25116;-70
2022/02/03 21:37:02;;;;;;;38.40;26.45;;;8.10;99.90;;;;;;5043544;28;25059;-71
2022/02/03 21:39:27;;;;;;;40.45;28.40;;;8.10;99.90;;;;;;5039909;28;25141;-70
2022/02/03 21:41:53;;;;;;;39.88;27.60;;;8.10;99.90;;;;;;5030573;28;25081;-72
2022/02/03 21:44:22;;;;;;;38.00;26.63;;;8.10;99.90;;;;;;5033035;28;25076;-71
2022/02/03 21:46:48;;;;;;;37.97;27.75;;;8.10;99.90;;;;;;5039249;28;25133;-70
2022/02/03 21:49:15;;;;;;;41.67;28.95;;;8.10;99.90;;;;;;5049048;28;25097;-71
2022/02/03 21:51:43;;;;;;;42.65;28.40;;;8.10;99.90;;;;;;5027784;28;25081;-71
2022/02/03 21:54:10;;;;;;;40.22;27.10;;;8.20;99.90;;;;;;5042980;28;25085;-70
2022/02/03 21:56:36;;;;;;;41.85;26.88;;;8.20;99.90;;;;;;5048937;28;25157;-71
2022/02/03 21:59:07;;;;;;;40.40;27.60;;;8.10;99.90;;;;;;5048775;28;25094;-71
2022/02/03 22:01:39;;;;;;;42.65;28.77;;;8.20;99.90;;;;;;5030471;28;25049;-71
2022/02/03 22:04:05;;;;;;;41.38;28.15;;;8.10;99.90;;;;;;5041030;28;25065;-69
2022/02/03 22:06:31;;;;;;;41.78;27.30;;;8.10;99.90;;;;;;5048492;28;25100;-70
2022/02/03 22:08:56;;;;;;;43.92;28.08;;;8.10;99.90;;;;;;5049252;28;25133;-70
2022/02/03 22:11:26;;;;;;;40.47;27.17;;;8.10;99.90;;;;;;5049445;28;25161;-71
2022/02/03 22:13:51;;;;;;;42.42;28.92;;;8.20;99.90;;;;;;5047865;28;25061;-71
2022/02/03 22:16:23;;;;;;;38.17;27.40;;;8.20;99.90;;;;;;5048125;28;25069;-70
2022/02/03 22:18:48;;;;;;;36.15;26.90;;;8.10;99.90;;;;;;5049134;28;25108;-69
2022/02/03 22:38:35;;;;;;;35.95;25.38;;;8.20;99.90;;;;;;5030583;28;25109;-71
2022/02/03 22:43:01;;;;;;;34.83;25.75;;;8.10;99.90;;;;;;5061652;28;25084;-71
2022/02/03 22:45:26;;;;;;;34.55;26.52;;;8.10;99.90;;;;;;5040596;28;25100;-70
2022/02/03 22:48:02;;;;;;;33.60;26.35;;;8.10;99.90;;;;;;5048099;28;25057;-71
2022/02/03 22:50:28;;;;;;;33.90;23.75;;;8.00;99.90;;;;;;5068265;28;25076;-70
2022/02/03 22:52:54;;;;;;;37.53;25.52;;;8.10;99.90;;;;;;5058082;28;25073;-70
2022/02/03 22:55:19;;;;;;;32.22;24.80;;;8.20;99.90;;;;;;5038080;28;25084;-70
2022/02/03 22:57:58;;;;;;;27.77;22.35;;;8.20;99.90;;;;;;5033947;28;25122;-69
2022/02/03 23:01:02;;;;;;;36.83;25.73;;;8.20;99.90;;;;;;5034871;28;25096;-69
2022/02/03 23:03:30;;;;;;;34.78;24.63;;;8.20;99.90;;;;;;5038877;28;25057;-70
2022/02/03 23:05:56;;;;;;;39.47;26.73;;;8.20;99.90;;;;;;5045708;28;25068;-70
2022/02/03 23:08:31;;;;;;;40.28;26.63;;;8.20;99.90;;;;;;5048123;28;25089;-70
2022/02/03 23:13:58;;;;;;;32.42;26.20;;;8.20;99.90;;;;;;5050549;28;25046;-69
2022/02/03 23:21:28;;;;;;;37.30;25.60;;;8.20;99.90;;;;;;5055212;28;25089;-69
2022/02/03 23:23:55;;;;;;;34.20;24.33;;;8.20;99.90;;;;;;5047685;28;25070;-69
2022/02/03 23:26:24;;;;;;;37.70;25.70;;;8.20;99.90;;;;;;5053764;28;25050;-70
2022/02/03 23:28:55;;;;;;;33.15;24.38;;;8.20;99.90;;;;;;5028200;28;25063;-69
2022/02/03 23:31:21;;;;;;;32.72;24.30;;;8.10;99.90;;;;;;5052346;28;25055;-68
2022/02/03 23:33:54;;;;;;;32.15;23.48;;;8.20;99.90;;;;;;5057387;28;25069;-69
2022/02/03 23:36:19;;;;;;;34.45;24.33;;;8.20;99.90;;;;;;5052590;28;25069;-69